Time;durP1;ratioP1;P1;durP2;ratioP2;P2;SDS_P1;SDS_P2;PMS_P1;PMS_P2;Temp;Humidity;BMP_temperature;BMP_pressure;BME280_temperature;BME280_humidity;BME280_pressure;Samples;Min_cycle;Max_cycle;Signal;HPM_P1;HPM_P2
2023/05/15 00:01:26;;;;;;;11.40;10.30;;;9.60;99.90;;;;;;4966304;28;20202;-77
2023/05/15 00:03:53;;;;;;;8.87;8.07;;;9.60;99.90;;;;;;4964642;28;20230;-77
2023/05/15 00:06:20;;;;;;;10.13;8.27;;;9.60;99.90;;;;;;4961723;28;20289;-78
2023/05/15 00:08:47;;;;;;;9.37;8.33;;;9.50;99.90;;;;;;4962597;29;20202;-78
2023/05/15 00:11:14;;;;;;;9.63;8.60;;;9.50;99.90;;;;;;4972112;28;20249;-77
2023/05/15 00:13:42;;;;;;;9.43;8.47;;;9.50;99.90;;;;;;4978395;28;20198;-77
2023/05/15 00:16:09;;;;;;;9.90;9.00;;;9.50;99.90;;;;;;4976906;28;20253;-78
2023/05/15 00:18:36;;;;;;;11.13;10.13;;;9.50;99.90;;;;;;4977684;28;20280;-78
2023/05/15 00:21:03;;;;;;;12.57;11.47;;;9.40;99.90;;;;;;4981146;28;20205;-78
2023/05/15 00:23:30;;;;;;;11.63;10.53;;;9.50;99.90;;;;;;4978393;28;20205;-77
2023/05/15 00:25:57;;;;;;;11.70;10.60;;;9.40;99.90;;;;;;4978719;28;20208;-78
2023/05/15 00:28:23;;;;;;;11.77;10.70;;;9.40;99.90;;;;;;4964845;28;20628;-78
2023/05/15 00:30:52;;;;;;;11.43;10.43;;;9.30;99.90;;;;;;4978033;28;20205;-79
2023/05/15 00:33:19;;;;;;;12.20;11.20;;;9.40;99.90;;;;;;4975560;28;20202;-77
2023/05/15 00:35:45;;;;;;;12.37;11.30;;;9.30;99.90;;;;;;4974250;28;20221;-78
2023/05/15 00:38:12;;;;;;;12.43;11.23;;;9.30;99.90;;;;;;4964907;28;20293;-77
2023/05/15 00:40:40;;;;;;;11.97;10.87;;;9.30;99.90;;;;;;4961857;28;20215;-78
2023/05/15 00:43:09;;;;;;;13.97;12.47;;;9.20;99.90;;;;;;4960989;28;20198;-79
2023/05/15 00:45:40;;;;;;;14.30;13.17;;;9.20;99.90;;;;;;4962082;28;20213;-78
2023/05/15 00:48:09;;;;;;;14.10;12.93;;;9.10;99.90;;;;;;4963815;28;20241;-79
2023/05/15 00:50:38;;;;;;;13.90;12.70;;;9.10;99.90;;;;;;4960250;28;20254;-78
2023/05/15 00:53:05;;;;;;;14.33;13.03;;;9.10;99.90;;;;;;4976699;28;20682;-79
2023/05/15 00:55:33;;;;;;;14.40;13.20;;;9.00;99.90;;;;;;4976293;28;20194;-80
2023/05/15 00:58:02;;;;;;;16.10;14.80;;;9.00;99.90;;;;;;4963756;28;20242;-77
2023/05/15 01:00:31;;;;;;;15.00;13.60;;;9.00;99.90;;;;;;4959633;28;20273;-76
2023/05/15 01:02:58;;;;;;;12.53;11.43;;;9.00;99.90;;;;;;4960032;28;20214;-78
2023/05/15 01:05:26;;;;;;;11.87;10.73;;;9.00;99.90;;;;;;4980730;28;20693;-80
2023/05/15 01:07:58;;;;;;;11.17;10.07;;;9.00;99.90;;;;;;4960650;28;20331;-78
2023/05/15 01:10:26;;;;;;;9.90;8.90;;;9.00;99.90;;;;;;4956934;28;20247;-77
2023/05/15 01:12:54;;;;;;;10.33;9.23;;;9.10;99.90;;;;;;4972608;28;20194;-77
2023/05/15 01:15:21;;;;;;;13.13;11.83;;;9.10;99.90;;;;;;4978142;28;20202;-79
2023/05/15 01:17:49;;;;;;;9.60;8.60;;;9.20;99.90;;;;;;4964646;28;20226;-77
2023/05/15 01:20:18;;;;;;;10.27;9.13;;;9.20;99.90;;;;;;4960617;28;20274;-77
2023/05/15 01:22:54;;;;;;;8.93;8.03;;;9.20;99.90;;;;;;4960616;29;20218;-79
2023/05/15 01:25:44;;;;;;;9.80;8.80;;;9.30;99.90;;;;;;4978526;28;20197;-79
2023/05/15 01:28:17;;;;;;;11.03;8.93;;;9.40;99.90;;;;;;4975741;28;20293;-78
2023/05/15 01:30:49;;;;;;;10.80;8.70;;;9.40;99.90;;;;;;4962401;28;20284;-77
2023/05/15 01:33:22;;;;;;;10.23;8.50;;;9.50;99.90;;;;;;4962138;28;20205;-78
2023/05/15 01:35:58;;;;;;;9.47;8.47;;;9.50;99.90;;;;;;4980640;28;20217;-77
2023/05/15 01:38:33;;;;;;;12.10;10.97;;;9.60;99.90;;;;;;4964153;28;20619;-77
2023/05/15 01:41:05;;;;;;;13.23;12.03;;;9.60;99.90;;;;;;4965060;28;20714;-79
2023/05/15 01:43:37;;;;;;;13.73;12.57;;;9.70;99.90;;;;;;4977327;28;20216;-79
2023/05/15 01:46:07;;;;;;;13.00;11.83;;;9.80;99.90;;;;;;4977344;28;20222;-78
2023/05/15 01:48:35;;;;;;;13.23;12.13;;;9.80;99.90;;;;;;4980192;28;20201;-78
2023/05/15 01:51:05;;;;;;;13.90;12.60;;;9.80;99.90;;;;;;4966098;28;20296;-78
2023/05/15 01:53:33;;;;;;;14.10;13.00;;;9.90;99.90;;;;;;4964529;28;20222;-78
2023/05/15 01:56:02;;;;;;;16.17;14.77;;;9.90;99.90;;;;;;4974833;28;20205;-78
2023/05/15 01:58:30;;;;;;;14.63;13.43;;;9.90;99.90;;;;;;4964156;28;20212;-78
2023/05/15 02:01:00;;;;;;;14.53;13.27;;;10.00;99.90;;;;;;4977344;28;20221;-77
2023/05/15 02:03:27;;;;;;;14.07;12.97;;;10.00;99.90;;;;;;4976128;28;20225;-79
2023/05/15 02:05:55;;;;;;;13.77;12.67;;;10.00;99.90;;;;;;4959299;29;20210;-78
2023/05/15 02:08:24;;;;;;;13.23;12.23;;;10.00;99.90;;;;;;4962428;28;20260;-78
2023/05/15 02:10:52;;;;;;;13.50;12.50;;;10.00;99.90;;;;;;4962502;28;20225;-79
2023/05/15 02:13:21;;;;;;;13.30;12.30;;;10.00;99.90;;;;;;4956703;28;20237;-78
2023/05/15 02:15:48;;;;;;;13.93;12.77;;;10.00;99.90;;;;;;4964193;28;20777;-78
2023/05/15 02:18:16;;;;;;;13.70;12.50;;;10.00;99.90;;;;;;4976565;28;20895;-78
2023/05/15 02:20:43;;;;;;;14.40;13.30;;;10.00;99.90;;;;;;4966141;28;20201;-79
2023/05/15 02:23:10;;;;;;;14.87;13.77;;;10.00;99.90;;;;;;4974583;28;20202;-77
2023/05/15 02:25:46;;;;;;;14.53;13.43;;;9.90;99.90;;;;;;4972845;28;20208;-80
2023/05/15 02:28:22;;;;;;;10.57;8.20;;;9.90;99.90;;;;;;4972461;28;20218;-78
2023/05/15 02:30:55;;;;;;;8.50;7.60;;;10.00;99.90;;;;;;4976495;28;20209;-78
2023/05/15 02:33:30;;;;;;;8.90;8.00;;;10.00;99.90;;;;;;4963454;28;20205;-77
2023/05/15 02:35:59;;;;;;;8.57;7.47;;;10.00;99.90;;;;;;4969055;28;20276;-77
2023/05/15 02:38:30;;;;;;;8.57;7.57;;;10.00;99.90;;;;;;4962098;28;20769;-77
2023/05/15 02:40:59;;;;;;;8.27;7.47;;;10.00;99.90;;;;;;4959576;28;20590;-80
2023/05/15 02:43:27;;;;;;;8.20;7.37;;;10.00;99.90;;;;;;4961656;28;20695;-77
2023/05/15 02:45:55;;;;;;;8.33;7.20;;;10.00;99.90;;;;;;4956846;28;20206;-79
2023/05/15 02:48:24;;;;;;;8.77;7.57;;;10.00;99.90;;;;;;4963225;28;20249;-77
2023/05/15 02:50:53;;;;;;;7.83;7.03;;;10.00;99.90;;;;;;4948188;28;20224;-79
2023/05/15 02:53:19;;;;;;;15.03;8.40;;;10.00;99.90;;;;;;4949466;28;20686;-78
2023/05/15 02:55:47;;;;;;;8.97;8.07;;;10.00;99.90;;;;;;4974011;28;20756;-78
2023/05/15 02:58:14;;;;;;;8.27;7.47;;;10.00;99.90;;;;;;4975671;28;20219;-79
2023/05/15 03:00:41;;;;;;;8.60;7.70;;;10.00;99.90;;;;;;4972105;28;20211;-78
2023/05/15 03:03:08;;;;;;;9.37;8.00;;;10.00;99.90;;;;;;4970011;28;20299;-79
2023/05/15 03:05:36;;;;;;;8.70;7.80;;;10.00;99.90;;;;;;4972467;28;20640;-78
2023/05/15 03:08:03;;;;;;;8.23;7.43;;;10.00;99.90;;;;;;4971489;28;20214;-78
2023/05/15 03:10:30;;;;;;;9.03;8.13;;;10.00;99.90;;;;;;4974984;28;20198;-78
2023/05/15 03:12:58;;;;;;;8.90;8.00;;;10.10;99.90;;;;;;4971862;28;20202;-78
2023/05/15 03:15:25;;;;;;;8.70;7.90;;;10.00;99.90;;;;;;4972177;28;20210;-78
2023/05/15 03:17:51;;;;;;;8.37;7.57;;;10.00;99.90;;;;;;4973675;28;20570;-80
2023/05/15 03:20:18;;;;;;;8.97;8.07;;;10.00;99.90;;;;;;4957112;28;20679;-80
2023/05/15 03:22:46;;;;;;;10.00;8.37;;;10.00;99.90;;;;;;4971384;28;20218;-77
2023/05/15 03:25:13;;;;;;;8.70;7.80;;;9.90;99.90;;;;;;4956805;28;20594;-80
2023/05/15 03:27:40;;;;;;;8.13;7.13;;;9.90;99.90;;;;;;4954995;29;20250;-79
2023/05/15 03:30:08;;;;;;;8.67;7.77;;;9.90;99.90;;;;;;4955941;29;20206;-78
2023/05/15 03:32:35;;;;;;;9.93;8.93;;;9.80;99.90;;;;;;4955411;28;20237;-78
2023/05/15 03:35:01;;;;;;;9.80;8.80;;;9.80;99.90;;;;;;4963715;28;20203;-79
2023/05/15 03:37:28;;;;;;;8.47;7.63;;;9.70;99.90;;;;;;4972175;28;20222;-78
2023/05/15 03:39:56;;;;;;;10.03;8.50;;;9.70;99.90;;;;;;4954474;28;20198;-79
2023/05/15 03:42:23;;;;;;;10.07;8.70;;;9.70;99.90;;;;;;4958661;28;20209;-79
2023/05/15 03:44:51;;;;;;;10.33;8.40;;;9.70;99.90;;;;;;4968261;28;20667;-76
2023/05/15 03:47:18;;;;;;;9.53;8.53;;;9.70;99.90;;;;;;4971689;28;20218;-77
2023/05/15 03:49:46;;;;;;;9.93;8.47;;;9.70;99.90;;;;;;4958225;28;20221;-76
2023/05/15 03:52:13;;;;;;;10.03;8.33;;;9.70;99.90;;;;;;4968546;28;20202;-75
2023/05/15 03:54:40;;;;;;;9.50;8.03;;;9.70;99.90;;;;;;4971328;28;20205;-77
2023/05/15 03:57:08;;;;;;;8.90;8.00;;;9.70;99.90;;;;;;4965187;28;20222;-78
2023/05/15 03:59:35;;;;;;;7.83;7.03;;;9.80;99.90;;;;;;4982135;28;20198;-82
2023/05/15 04:02:02;;;;;;;8.97;8.00;;;9.80;99.90;;;;;;4963680;28;20214;-83
2023/05/15 04:04:29;;;;;;;8.30;7.43;;;9.90;99.90;;;;;;4975031;28;20194;-82
2023/05/15 04:06:55;;;;;;;7.70;6.90;;;10.00;99.90;;;;;;4978748;28;20207;-84
2023/05/15 04:09:22;;;;;;;8.90;8.00;;;10.00;99.90;;;;;;4976727;28;20639;-79
2023/05/15 04:11:49;;;;;;;8.17;7.37;;;10.00;99.90;;;;;;4962979;28;20559;-81
2023/05/15 04:14:17;;;;;;;8.90;7.17;;;10.10;99.90;;;;;;4961847;28;20213;-83
2023/05/15 04:16:44;;;;;;;7.97;7.17;;;10.10;99.90;;;;;;4961532;28;20280;-82
2023/05/15 04:19:11;;;;;;;8.40;7.27;;;10.20;99.90;;;;;;4961910;28;20214;-84
2023/05/15 04:21:38;;;;;;;8.60;7.60;;;10.20;99.90;;;;;;4964191;28;20197;-83
2023/05/15 04:24:05;;;;;;;8.10;7.30;;;10.20;99.90;;;;;;4962671;28;20233;-84
2023/05/15 04:26:32;;;;;;;8.50;7.70;;;10.30;99.90;;;;;;4979502;28;20560;-84
2023/05/15 04:28:59;;;;;;;8.88;8.00;;;10.30;99.90;;;;;;4958742;29;20475;-82
2023/05/15 04:31:27;;;;;;;8.13;7.43;;;10.40;99.90;;;;;;4966737;28;20436;-85
2023/05/15 04:33:54;;;;;;;9.00;8.20;;;10.50;99.90;;;;;;4955707;28;20464;-85
2023/05/15 04:36:21;;;;;;;11.37;10.47;;;10.60;99.90;;;;;;4971125;28;20234;-83
2023/05/15 04:38:48;;;;;;;12.93;11.93;;;10.60;99.90;;;;;;4960441;28;20233;-77
2023/05/15 04:41:15;;;;;;;8.80;8.00;;;10.70;99.90;;;;;;4970455;28;20252;-77
2023/05/15 04:43:42;;;;;;;12.73;11.73;;;10.70;99.90;;;;;;4961069;28;20255;-79
2023/05/15 04:46:08;;;;;;;12.40;11.50;;;10.70;99.90;;;;;;4960860;28;20278;-77
2023/05/15 04:48:37;;;;;;;9.10;8.30;;;10.80;99.90;;;;;;4976954;28;20196;-77
2023/05/15 04:51:04;;;;;;;7.63;6.93;;;10.80;99.90;;;;;;4973062;28;20664;-78
2023/05/15 04:53:30;;;;;;;8.57;7.87;;;10.80;99.90;;;;;;4961335;28;20205;-79
2023/05/15 04:55:57;;;;;;;10.40;9.57;;;10.90;99.90;;;;;;4970607;28;20210;-78
2023/05/15 04:58:24;;;;;;;12.37;11.47;;;11.00;99.90;;;;;;4964050;28;20746;-79
2023/05/15 05:00:51;;;;;;;9.90;9.10;;;11.00;99.90;;;;;;4961431;28;20200;-78
2023/05/15 05:03:18;;;;;;;7.87;7.17;;;11.00;99.90;;;;;;4963473;28;20313;-76
2023/05/15 05:05:46;;;;;;;8.20;7.40;;;11.10;99.90;;;;;;4977002;28;20257;-77
2023/05/15 05:08:13;;;;;;;7.97;7.17;;;11.10;99.90;;;;;;4958594;28;20223;-79
2023/05/15 05:10:39;;;;;;;7.30;6.60;;;11.20;99.90;;;;;;4973000;28;20200;-77
2023/05/15 05:13:06;;;;;;;7.93;7.13;;;11.20;99.90;;;;;;4971029;28;20209;-77
2023/05/15 05:15:33;;;;;;;8.30;7.50;;;11.30;99.90;;;;;;4960488;28;20208;-77
2023/05/15 05:18:00;;;;;;;8.03;7.23;;;11.30;99.90;;;;;;4972924;28;20219;-77
2023/05/15 05:20:26;;;;;;;7.03;6.33;;;11.40;99.90;;;;;;4972202;28;20257;-77
2023/05/15 05:22:55;;;;;;;9.40;8.60;;;11.40;99.90;;;;;;4974042;28;20204;-77
2023/05/15 05:25:21;;;;;;;8.63;7.83;;;11.50;99.90;;;;;;4972499;28;20202;-76
2023/05/15 05:27:48;;;;;;;8.53;6.73;;;11.60;99.90;;;;;;4966492;28;20239;-77
2023/05/15 05:30:15;;;;;;;7.50;6.73;;;11.70;99.90;;;;;;4974388;28;20271;-77
2023/05/15 05:32:42;;;;;;;7.47;6.77;;;11.70;99.90;;;;;;4962808;28;20200;-79
2023/05/15 05:35:09;;;;;;;13.17;12.17;;;11.80;99.90;;;;;;4956395;29;20236;-78
2023/05/15 05:37:36;;;;;;;7.10;6.40;;;11.80;99.90;;;;;;4953782;28;20614;-82
2023/05/15 05:40:07;;;;;;;7.03;6.17;;;12.00;99.90;;;;;;4956234;29;20350;-84
2023/05/15 05:42:34;;;;;;;10.80;10.00;;;12.00;99.90;;;;;;4973097;28;20197;-83
2023/05/15 05:45:01;;;;;;;6.60;6.00;;;12.20;99.90;;;;;;4959150;28;20252;-83
2023/05/15 05:47:27;;;;;;;6.70;6.10;;;12.30;99.90;;;;;;4958465;28;20226;-83
2023/05/15 05:49:54;;;;;;;6.83;6.23;;;12.40;99.90;;;;;;4973131;28;20205;-85
2023/05/15 05:52:21;;;;;;;7.20;6.60;;;12.50;99.90;;;;;;4958562;28;20221;-83
2023/05/15 05:54:48;;;;;;;7.43;6.73;;;12.70;99.90;;;;;;4951251;28;20349;-81
2023/05/15 05:57:16;;;;;;;7.73;7.03;;;12.90;99.90;;;;;;4966322;28;20229;-83
2023/05/15 05:59:43;;;;;;;9.17;8.37;;;13.10;99.90;;;;;;4963282;28;20264;-83
2023/05/15 06:02:10;;;;;;;7.83;7.20;;;13.20;99.90;;;;;;4970885;28;20202;-83
2023/05/15 06:04:37;;;;;;;6.10;5.60;;;13.40;99.90;;;;;;4972498;28;20297;-83
2023/05/15 06:07:04;;;;;;;8.17;7.57;;;13.50;99.90;;;;;;4969778;28;20246;-85
2023/05/15 06:09:31;;;;;;;7.67;6.97;;;13.70;99.90;;;;;;4971814;28;20210;-84
2023/05/15 06:11:59;;;;;;;8.20;7.40;;;13.80;99.90;;;;;;4971635;28;20202;-84
2023/05/15 06:14:27;;;;;;;6.43;5.83;;;13.90;99.90;;;;;;4959548;28;20235;-83
2023/05/15 06:16:54;;;;;;;9.10;8.40;;;14.10;99.90;;;;;;4974008;28;20281;-81
2023/05/15 06:19:21;;;;;;;6.50;5.90;;;14.20;99.90;;;;;;4975817;28;20235;-83
2023/05/15 06:21:48;;;;;;;9.20;8.50;;;14.30;99.90;;;;;;4972244;28;20233;-84
2023/05/15 06:24:15;;;;;;;7.70;7.07;;;14.50;99.90;;;;;;4970869;28;20219;-84
2023/05/15 06:26:42;;;;;;;6.20;5.70;;;14.60;99.90;;;;;;4972416;28;20468;-83
2023/05/15 06:29:08;;;;;;;9.03;8.30;;;14.70;99.90;;;;;;4976869;28;20194;-83
2023/05/15 06:31:36;;;;;;;7.80;7.20;;;14.90;99.90;;;;;;4981481;28;20214;-82
2023/05/15 06:34:03;;;;;;;8.20;7.50;;;14.90;99.90;;;;;;4974043;28;20645;-82
2023/05/15 06:36:30;;;;;;;8.73;8.03;;;15.00;99.90;;;;;;4976525;28;20792;-83
2023/05/15 06:38:57;;;;;;;8.60;7.90;;;15.10;99.90;;;;;;4976992;28;20220;-83
2023/05/15 06:41:24;;;;;;;9.52;8.82;;;15.30;99.90;;;;;;4976272;28;20449;-83
2023/05/15 06:43:50;;;;;;;7.90;7.30;;;15.50;99.90;;;;;;4978715;28;20208;-82
2023/05/15 06:46:17;;;;;;;8.43;7.83;;;15.60;99.90;;;;;;4969781;28;20218;-83
2023/05/15 06:48:46;;;;;;;6.67;5.97;;;15.70;99.90;;;;;;4977488;28;20295;-83
2023/05/15 06:51:13;;;;;;;6.63;6.13;;;15.90;99.90;;;;;;4965233;28;20205;-85
2023/05/15 06:53:41;;;;;;;7.07;5.90;;;16.10;99.90;;;;;;4976879;28;20232;-84
2023/05/15 06:56:08;;;;;;;6.90;6.30;;;16.30;99.90;;;;;;4971925;28;20588;-82
2023/05/15 06:58:34;;;;;;;6.20;5.60;;;16.40;99.90;;;;;;4977425;28;21004;-83
2023/05/15 07:01:02;;;;;;;6.13;5.57;;;16.50;99.90;;;;;;4972064;28;20212;-85
2023/05/15 07:03:29;;;;;;;6.70;5.70;;;16.60;99.90;;;;;;4960517;28;20210;-84
2023/05/15 07:05:57;;;;;;;6.27;5.67;;;16.60;99.90;;;;;;4975405;28;20542;-85
2023/05/15 07:08:24;;;;;;;7.90;7.20;;;16.80;99.90;;;;;;4961712;28;20194;-84
2023/05/15 07:10:51;;;;;;;8.67;7.87;;;16.90;99.90;;;;;;4975516;28;20214;-81
2023/05/15 07:13:19;;;;;;;11.07;10.27;;;16.90;99.90;;;;;;4952440;28;20452;-84
2023/05/15 07:15:46;;;;;;;9.67;9.07;;;16.80;99.90;;;;;;4967893;28;20442;-84
2023/05/15 07:18:13;;;;;;;7.40;6.70;;;16.80;99.90;;;;;;4965814;28;20239;-81
2023/05/15 07:20:40;;;;;;;7.10;6.50;;;16.90;99.90;;;;;;4954354;28;20742;-85
2023/05/15 07:23:08;;;;;;;11.97;11.17;;;17.00;99.90;;;;;;4961284;28;20202;-83
2023/05/15 07:25:35;;;;;;;5.43;4.93;;;17.10;99.90;;;;;;4979879;28;20582;-81
2023/05/15 07:28:02;;;;;;;5.90;5.40;;;17.20;99.90;;;;;;4961149;28;20231;-84
2023/05/15 07:30:29;;;;;;;6.93;6.33;;;17.30;99.90;;;;;;4959073;28;20224;-85
2023/05/15 07:32:55;;;;;;;13.53;12.50;;;17.30;99.90;;;;;;4966805;28;20260;-84
2023/05/15 07:35:22;;;;;;;6.27;5.67;;;17.40;99.90;;;;;;4958489;28;20212;-84
2023/05/15 07:37:49;;;;;;;6.53;5.83;;;17.50;99.90;;;;;;4954168;28;20298;-85
2023/05/15 07:40:17;;;;;;;7.20;6.60;;;17.40;99.90;;;;;;4978051;28;20208;-85
2023/05/15 07:42:44;;;;;;;11.57;10.77;;;17.50;99.90;;;;;;4978892;28;20669;-85
2023/05/15 07:45:11;;;;;;;6.63;6.03;;;17.40;99.90;;;;;;4966087;28;20208;-84
2023/05/15 07:47:38;;;;;;;6.67;6.07;;;17.30;99.90;;;;;;4969146;28;20227;-87
2023/05/15 07:50:06;;;;;;;6.67;6.00;;;17.40;99.90;;;;;;4963593;28;20590;-84
2023/05/15 07:52:32;;;;;;;6.70;6.07;;;17.50;99.90;;;;;;4965776;28;20199;-85
2023/05/15 07:55:00;;;;;;;6.30;5.70;;;17.60;99.90;;;;;;4973182;28;20201;-85
2023/05/15 07:57:28;;;;;;;6.33;5.73;;;18.00;99.90;;;;;;4959034;28;20275;-82
2023/05/15 07:59:55;;;;;;;12.70;11.80;;;18.00;99.90;;;;;;4975832;28;20217;-83
2023/05/15 08:02:22;;;;;;;11.77;10.87;;;18.50;99.90;;;;;;4972087;28;20209;-83
2023/05/15 08:04:49;;;;;;;6.50;5.90;;;19.20;99.90;;;;;;4965476;28;20248;-84
2023/05/15 08:07:15;;;;;;;7.57;6.77;;;19.80;99.90;;;;;;4957515;28;20251;-83
2023/05/15 08:09:42;;;;;;;6.10;5.43;;;20.20;99.90;;;;;;4972113;28;20675;-83
2023/05/15 08:12:19;;;;;;;10.40;9.60;;;20.60;99.90;;;;;;4966052;28;20260;-82
2023/05/15 08:14:48;;;;;;;6.87;6.27;;;20.70;99.90;;;;;;4957382;28;20732;-82
2023/05/15 08:17:15;;;;;;;9.17;8.47;;;20.60;99.90;;;;;;4962569;28;20232;-83
2023/05/15 08:19:42;;;;;;;5.73;5.20;;;21.00;99.90;;;;;;4960108;28;20277;-81
2023/05/15 08:22:09;;;;;;;6.50;5.77;;;21.70;99.90;;;;;;4967366;28;20201;-83
2023/05/15 08:24:36;;;;;;;10.50;9.80;;;21.50;99.90;;;;;;4955561;28;20804;-80
2023/05/15 08:27:04;;;;;;;6.03;5.47;;;22.20;99.90;;;;;;4963189;28;20273;-82
2023/05/15 08:29:31;;;;;;;10.37;9.67;;;22.60;99.90;;;;;;4972477;28;20198;-82
2023/05/15 08:31:59;;;;;;;8.70;8.10;;;23.00;99.90;;;;;;4964093;28;20198;-81
2023/05/15 08:34:26;;;;;;;6.50;6.00;;;22.90;99.90;;;;;;4958744;28;20198;-81
2023/05/15 08:36:54;;;;;;;5.67;5.17;;;23.50;99.90;;;;;;4957501;28;20269;-81
2023/05/15 08:39:21;;;;;;;7.23;5.63;;;23.70;99.90;;;;;;4956733;28;20230;-85
2023/05/15 08:41:52;;;;;;;6.57;4.80;;;23.70;99.90;;;;;;4957549;28;20198;-83
2023/05/15 08:44:22;;;;;;;4.87;4.47;;;23.20;99.90;;;;;;4957660;28;20206;-82
2023/05/15 08:46:49;;;;;;;6.83;6.33;;;23.30;99.90;;;;;;4976176;28;20206;-78
2023/05/15 08:49:24;;;;;;;7.77;7.17;;;23.60;99.90;;;;;;4960818;28;20205;-78
2023/05/15 08:51:53;;;;;;;7.80;7.17;;;24.10;99.90;;;;;;4956774;28;20268;-78
2023/05/15 08:54:20;;;;;;;8.50;7.80;;;24.30;99.90;;;;;;4957289;28;20202;-78
2023/05/15 08:56:47;;;;;;;8.00;7.43;;;24.50;99.90;;;;;;4970758;28;20226;-78
2023/05/15 09:03:02;;;;;;;10.70;10.00;;;24.40;99.90;;;;;;4960822;28;20222;-78
2023/05/15 09:05:31;;;;;;;7.00;6.50;;;24.50;99.90;;;;;;4962941;28;20261;-78
2023/05/15 09:08:02;;;;;;;9.77;8.77;;;24.60;99.90;;;;;;4974433;28;20268;-77
2023/05/15 09:10:30;;;;;;;7.23;6.43;;;24.80;99.90;;;;;;4967204;28;20694;-77
2023/05/15 09:12:59;;;;;;;10.17;9.37;;;24.60;99.90;;;;;;4966613;28;20251;-78
2023/05/15 09:15:26;;;;;;;9.87;8.80;;;24.00;99.90;;;;;;4975027;28;20229;-78
2023/05/15 09:17:54;;;;;;;8.70;8.10;;;24.20;99.90;;;;;;4967803;28;20221;-78
2023/05/15 09:20:26;;;;;;;7.80;7.20;;;24.00;99.90;;;;;;4966606;28;20210;-78
2023/05/15 09:22:55;;;;;;;7.10;6.60;;;23.60;99.90;;;;;;4970468;28;20209;-78
2023/05/15 09:25:36;;;;;;;7.50;6.80;;;23.30;99.90;;;;;;4961711;28;20325;-77
2023/05/15 09:28:03;;;;;;;8.67;8.13;;;22.50;99.90;;;;;;4957344;28;20245;-78
2023/05/15 09:30:30;;;;;;;6.83;6.17;;;22.50;99.90;;;;;;4954391;28;20262;-77
2023/05/15 09:33:00;;;;;;;9.43;8.73;;;22.40;99.90;;;;;;4970833;28;20217;-78
2023/05/15 09:35:34;;;;;;;5.33;4.60;;;22.20;99.90;;;;;;4967877;28;20628;-78
2023/05/15 09:38:08;;;;;;;6.67;5.00;;;22.20;99.90;;;;;;4949581;28;20214;-78
2023/05/15 09:40:34;;;;;;;5.17;4.67;;;22.30;99.90;;;;;;4954763;28;20578;-78
2023/05/15 09:43:01;;;;;;;9.07;8.37;;;22.50;99.90;;;;;;4957184;28;20234;-78
2023/05/15 09:45:30;;;;;;;8.70;8.10;;;23.10;99.90;;;;;;4956450;28;20322;-78
2023/05/15 09:47:59;;;;;;;9.23;8.63;;;23.40;99.90;;;;;;4970448;28;20228;-78
2023/05/15 09:50:33;;;;;;;6.37;5.87;;;23.70;99.90;;;;;;4968953;28;20182;-78
2023/05/15 09:53:01;;;;;;;5.03;4.63;;;23.80;99.90;;;;;;4949146;28;20289;-78
2023/05/15 09:55:28;;;;;;;9.40;8.77;;;24.10;99.90;;;;;;4974070;28;20190;-78
2023/05/15 09:58:06;;;;;;;8.37;7.80;;;24.10;99.90;;;;;;4969480;28;20647;-78
2023/05/15 10:00:33;;;;;;;6.87;4.93;;;24.00;99.90;;;;;;4952689;28;20218;-76
2023/05/15 10:03:02;;;;;;;4.80;4.40;;;23.40;99.90;;;;;;4972032;28;20202;-76
2023/05/15 10:05:29;;;;;;;4.83;4.03;;;22.70;99.90;;;;;;4959998;28;20198;-76
2023/05/15 10:07:56;;;;;;;8.97;8.23;;;22.00;99.90;;;;;;4979064;28;20721;-76
2023/05/15 10:10:25;;;;;;;7.47;6.77;;;21.50;99.90;;;;;;4961980;28;20202;-76
2023/05/15 10:12:53;;;;;;;4.70;4.30;;;22.10;99.90;;;;;;4961214;28;20233;-77
2023/05/15 10:15:21;;;;;;;4.97;4.30;;;22.90;99.90;;;;;;4973626;28;20202;-76
2023/05/15 10:17:49;;;;;;;4.77;4.37;;;23.10;99.90;;;;;;4972205;28;20281;-77
2023/05/15 10:20:17;;;;;;;4.40;4.00;;;22.80;99.90;;;;;;4967168;28;20219;-76
2023/05/15 10:22:47;;;;;;;5.50;4.93;;;22.50;99.90;;;;;;4975091;28;20203;-77
2023/05/15 10:25:18;;;;;;;7.50;6.80;;;22.00;99.90;;;;;;4970665;28;20310;-76
2023/05/15 10:27:47;;;;;;;5.17;4.67;;;21.40;99.90;;;;;;4972430;28;20281;-77
2023/05/15 10:30:16;;;;;;;5.80;5.40;;;20.60;99.90;;;;;;4972287;28;20200;-76
2023/05/15 10:32:44;;;;;;;5.60;5.20;;;19.60;99.90;;;;;;4977450;28;20197;-78
2023/05/15 10:35:12;;;;;;;10.90;10.27;;;18.80;99.90;;;;;;4979295;28;20198;-78
2023/05/15 10:37:40;;;;;;;11.20;10.50;;;18.20;99.90;;;;;;4978408;28;20214;-78
2023/05/15 10:40:09;;;;;;;11.27;10.57;;;17.70;99.90;;;;;;4964693;28;20213;-78
2023/05/15 10:42:37;;;;;;;11.10;10.40;;;17.20;99.90;;;;;;4975876;28;20199;-77
2023/05/15 10:45:08;;;;;;;7.23;6.60;;;17.00;99.90;;;;;;4981810;28;20205;-78
2023/05/15 10:47:36;;;;;;;9.90;9.30;;;16.80;99.90;;;;;;4976506;28;20221;-77
2023/05/15 10:50:04;;;;;;;13.43;12.63;;;16.60;99.90;;;;;;4961760;28;20198;-78
2023/05/15 10:52:32;;;;;;;7.93;7.33;;;16.70;99.90;;;;;;4976288;28;20216;-78
2023/05/15 10:54:58;;;;;;;4.17;3.87;;;16.90;99.90;;;;;;4964342;28;20263;-79
2023/05/15 10:57:28;;;;;;;6.83;6.40;;;17.10;99.90;;;;;;4957000;28;20232;-77
2023/05/15 10:59:55;;;;;;;6.63;6.23;;;17.30;99.90;;;;;;4958236;28;20291;-83
2023/05/15 11:02:24;;;;;;;4.90;4.50;;;17.60;99.90;;;;;;4961254;28;20263;-82
2023/05/15 11:04:56;;;;;;;3.13;2.93;;;18.10;99.90;;;;;;4971112;28;20697;-81
2023/05/15 11:07:24;;;;;;;4.83;4.53;;;18.50;99.90;;;;;;4962818;28;20225;-80
2023/05/15 11:09:52;;;;;;;6.87;6.37;;;18.90;99.90;;;;;;4971645;28;20228;-80
2023/05/15 11:12:19;;;;;;;4.63;4.23;;;19.20;99.90;;;;;;4965500;28;20740;-78
2023/05/15 11:15:19;;;;;;;5.00;4.60;;;19.40;99.90;;;;;;4974250;28;20709;-79
2023/05/15 11:18:03;;;;;;;6.27;5.87;;;19.60;99.90;;;;;;4972972;28;20776;-81
2023/05/15 11:20:34;;;;;;;3.60;3.30;;;19.90;99.90;;;;;;4971414;28;20252;-81
2023/05/15 11:23:01;;;;;;;3.33;3.10;;;20.10;99.90;;;;;;4967900;28;20217;-81
2023/05/15 11:25:31;;;;;;;6.80;6.30;;;20.50;99.90;;;;;;4971444;28;20190;-79
2023/05/15 11:27:58;;;;;;;6.20;5.70;;;20.80;99.90;;;;;;4960908;28;20236;-79
2023/05/15 11:30:36;;;;;;;5.73;5.33;;;20.90;99.90;;;;;;4971819;28;20548;-77
2023/05/15 11:33:07;;;;;;;4.77;3.97;;;21.10;99.90;;;;;;4952922;28;20198;-80
2023/05/15 11:35:36;;;;;;;3.40;3.10;;;21.30;99.90;;;;;;4964410;28;20635;-79
2023/05/15 11:38:04;;;;;;;2.93;2.73;;;21.60;99.90;;;;;;4949051;28;20217;-79
2023/05/15 11:40:43;;;;;;;3.60;3.30;;;21.40;99.90;;;;;;4967830;28;20271;-78
2023/05/15 11:43:18;;;;;;;4.70;4.30;;;21.40;99.90;;;;;;4970223;28;20248;-80
2023/05/15 11:45:47;;;;;;;6.40;5.90;;;21.50;99.90;;;;;;4967978;28;20197;-79
2023/05/15 11:48:17;;;;;;;8.30;7.77;;;21.70;99.90;;;;;;4970523;28;20709;-78
2023/05/15 11:50:45;;;;;;;6.00;5.60;;;21.60;99.90;;;;;;4963186;28;20202;-79
2023/05/15 11:53:12;;;;;;;5.97;5.57;;;21.50;99.90;;;;;;4973042;28;20201;-79
2023/05/15 11:55:43;;;;;;;5.50;5.10;;;21.60;99.90;;;;;;4970207;28;20782;-78
2023/05/15 11:58:12;;;;;;;4.80;4.40;;;21.40;99.90;;;;;;4969563;28;20312;-79
2023/05/15 12:00:39;;;;;;;7.37;6.87;;;21.20;99.90;;;;;;4973415;28;20220;-80
2023/05/15 12:03:06;;;;;;;5.33;4.93;;;20.80;99.90;;;;;;4971160;28;20313;-80
2023/05/15 12:05:34;;;;;;;4.90;4.50;;;20.40;99.90;;;;;;4965489;28;20678;-78
2023/05/15 12:08:02;;;;;;;3.80;3.50;;;20.00;99.90;;;;;;4963427;28;20313;-76
2023/05/15 12:10:31;;;;;;;5.50;3.70;;;19.80;99.90;;;;;;4950678;28;20194;-76
2023/05/15 12:12:59;;;;;;;6.67;6.17;;;19.50;99.90;;;;;;4966303;28;20285;-76
2023/05/15 12:15:26;;;;;;;5.13;4.77;;;19.40;99.90;;;;;;4971348;28;20588;-77
2023/05/15 12:17:53;;;;;;;6.83;6.33;;;19.10;99.90;;;;;;4975140;28;20229;-78
2023/05/15 12:20:20;;;;;;;4.87;4.50;;;19.00;99.90;;;;;;4969110;28;20232;-77
2023/05/15 12:22:48;;;;;;;4.37;3.97;;;19.00;99.90;;;;;;4976834;28;20209;-77
2023/05/15 12:25:16;;;;;;;4.30;4.00;;;18.90;99.90;;;;;;4969777;28;20259;-77
2023/05/15 12:27:43;;;;;;;4.53;4.13;;;18.80;99.90;;;;;;4975064;28;20239;-77
2023/05/15 12:30:13;;;;;;;5.37;4.87;;;18.80;99.90;;;;;;4970153;28;20447;-77
2023/05/15 12:32:40;;;;;;;3.70;3.10;;;18.80;99.90;;;;;;4976870;28;20253;-78
2023/05/15 12:35:08;;;;;;;7.03;6.50;;;19.00;99.90;;;;;;4964331;28;20209;-77
2023/05/15 12:37:36;;;;;;;7.50;6.90;;;19.30;99.90;;;;;;4971561;28;20214;-77
2023/05/15 12:40:09;;;;;;;5.30;4.90;;;19.70;99.90;;;;;;4973497;28;20713;-77
2023/05/15 12:42:40;;;;;;;4.00;3.70;;;20.10;99.90;;;;;;4967794;28;20237;-78
2023/05/15 12:45:13;;;;;;;3.90;3.60;;;20.50;99.90;;;;;;4953113;28;20605;-77
2023/05/15 12:47:41;;;;;;;4.70;3.67;;;20.40;99.90;;;;;;4969430;28;20228;-76
2023/05/15 12:50:13;;;;;;;4.27;3.97;;;20.20;99.90;;;;;;4962486;28;20272;-75
2023/05/15 12:52:41;;;;;;;8.77;8.07;;;20.00;99.90;;;;;;4971164;28;20256;-77
2023/05/15 12:55:16;;;;;;;8.93;8.13;;;19.90;99.90;;;;;;4963190;28;20630;-78